createdAt,value
2022-12-27T00:00:08.124Z,14.40
2022-12-27T00:02:36.222Z,13.53
2022-12-27T00:05:03.090Z,12.93
2022-12-27T00:07:29.613Z,12.63
2022-12-27T00:09:56.193Z,11.73
2022-12-27T00:12:22.716Z,11.50
2022-12-27T00:14:49.237Z,11.00
2022-12-27T00:17:15.715Z,10.93
2022-12-27T00:19:42.223Z,10.73
2022-12-27T00:22:08.705Z,10.90
2022-12-27T00:24:35.824Z,9.27
2022-12-27T00:27:02.396Z,9.07
2022-12-27T00:29:28.880Z,9.33
2022-12-27T00:31:55.451Z,8.57
2022-12-27T00:34:21.974Z,9.27
2022-12-27T00:36:48.503Z,9.20
2022-12-27T00:39:15.287Z,8.37
2022-12-27T00:41:41.782Z,7.23
2022-12-27T00:44:08.242Z,7.80
2022-12-27T00:46:34.965Z,6.77
2022-12-27T00:49:01.575Z,7.03
2022-12-27T00:51:28.106Z,7.90
2022-12-27T00:53:54.748Z,7.27
2022-12-27T00:56:22.496Z,7.63
2022-12-27T00:58:52.345Z,6.83
2022-12-27T01:01:19.424Z,8.00
2022-12-27T01:03:46.325Z,7.27
2022-12-27T01:06:13.791Z,6.60
2022-12-27T01:08:40.365Z,6.43
2022-12-27T01:11:06.994Z,6.27
2022-12-27T01:13:33.559Z,5.97
2022-12-27T01:16:00.046Z,7.33
2022-12-27T01:18:26.560Z,6.90
2022-12-27T01:20:53.070Z,7.97
2022-12-27T01:23:19.523Z,6.67
2022-12-27T01:25:46.010Z,7.37
2022-12-27T01:28:12.497Z,7.13
2022-12-27T01:30:38.999Z,5.77
2022-12-27T01:33:05.459Z,5.23
2022-12-27T01:35:32.159Z,4.80
2022-12-27T01:37:58.661Z,4.70
2022-12-27T01:40:25.275Z,5.30
2022-12-27T01:42:55.589Z,5.17
2022-12-27T01:45:29.071Z,5.20
2022-12-27T01:47:58.827Z,6.10
2022-12-27T01:50:30.092Z,6.90
2022-12-27T01:52:59.687Z,6.50
2022-12-27T01:55:31.524Z,6.73
2022-12-27T01:58:00.001Z,7.50
2022-12-27T02:00:26.555Z,7.50
2022-12-27T02:02:53.106Z,7.23
2022-12-27T02:05:19.836Z,6.53
2022-12-27T02:08:05.199Z,6.57
2022-12-27T02:10:31.671Z,6.07
2022-12-27T02:12:58.466Z,6.60
2022-12-27T02:15:24.950Z,6.70
2022-12-27T02:17:51.651Z,6.73
2022-12-27T02:20:19.154Z,6.30
2022-12-27T02:23:04.209Z,5.93
2022-12-27T02:25:36.799Z,6.37
2022-12-27T02:28:22.134Z,7.00
2022-12-27T02:30:48.715Z,6.60
2022-12-27T02:33:18.024Z,6.57
2022-12-27T02:36:04.801Z,7.67
2022-12-27T02:38:32.015Z,6.83
2022-12-27T02:41:17.291Z,7.50
2022-12-27T02:44:02.562Z,6.47
2022-12-27T02:46:47.803Z,6.80
2022-12-27T02:49:48.907Z,7.57
2022-12-27T02:52:40.531Z,6.10
2022-12-27T02:55:19.324Z,6.20
2022-12-27T02:57:48.913Z,5.50
2022-12-27T03:00:43.284Z,5.17
2022-12-27T03:03:24.043Z,5.70
2022-12-27T03:06:28.546Z,4.70
2022-12-27T03:09:00.865Z,3.37
2022-12-27T03:11:46.147Z,3.70
2022-12-27T03:14:34.693Z,3.37
2022-12-27T03:17:02.612Z,3.53
2022-12-27T03:19:48.429Z,3.47
2022-12-27T03:22:33.578Z,3.60
2022-12-27T03:25:18.770Z,3.30
2022-12-27T03:27:45.350Z,3.00
2022-12-27T03:30:30.477Z,2.90
2022-12-27T03:33:15.326Z,2.83
2022-12-27T03:35:42.432Z,2.90
2022-12-27T03:38:09.522Z,3.53
2022-12-27T03:41:20.918Z,2.43
2022-12-27T03:43:47.404Z,2.60
2022-12-27T03:46:35.657Z,1.53
2022-12-27T03:49:05.429Z,1.30
2022-12-27T03:51:33.206Z,1.40
2022-12-27T03:54:01.143Z,1.23
2022-12-27T03:56:27.762Z,1.20
2022-12-27T03:58:54.236Z,1.20
2022-12-27T04:01:21.133Z,1.17
2022-12-27T04:03:47.622Z,0.90
2022-12-27T04:06:14.130Z,1.10
2022-12-27T04:08:59.312Z,1.43
2022-12-27T04:11:44.727Z,0.90
2022-12-27T04:14:29.850Z,1.10
2022-12-27T04:17:15.245Z,0.70
2022-12-27T04:20:00.364Z,0.70
2022-12-27T04:22:45.703Z,0.67
2022-12-27T04:25:30.933Z,0.63
2022-12-27T04:28:16.162Z,0.70
2022-12-27T04:31:01.378Z,0.90
2022-12-27T04:33:46.660Z,0.80
2022-12-27T04:36:13.117Z,0.90
2022-12-27T04:38:39.616Z,0.80
2022-12-27T04:41:24.871Z,0.87
2022-12-27T04:44:10.054Z,0.90
2022-12-27T04:46:55.350Z,0.80
2022-12-27T04:49:40.953Z,0.80
2022-12-27T04:52:30.119Z,1.10
2022-12-27T04:54:56.672Z,1.27
2022-12-27T04:57:23.198Z,0.90
2022-12-27T05:00:08.209Z,1.30
2022-12-27T05:02:35.033Z,1.27
2022-12-27T05:05:01.659Z,1.83
2022-12-27T05:07:46.861Z,2.10
2022-12-27T05:10:32.222Z,2.50
2022-12-27T05:13:17.505Z,2.30
2022-12-27T05:15:44.082Z,2.50
2022-12-27T05:18:10.686Z,2.10
2022-12-27T05:20:37.179Z,2.20
2022-12-27T05:23:22.364Z,2.43
2022-12-27T05:25:48.890Z,2.13
2022-12-27T05:28:15.530Z,2.20
2022-12-27T05:30:42.520Z,2.20
2022-12-27T05:33:09.063Z,3.13
2022-12-27T05:35:35.698Z,1.93
2022-12-27T05:38:02.192Z,2.80
2022-12-27T05:40:29.040Z,1.70
2022-12-27T05:42:55.978Z,1.80
2022-12-27T05:45:22.460Z,1.43
2022-12-27T05:47:48.969Z,1.60
2022-12-27T05:50:15.479Z,1.30
2022-12-27T05:52:41.980Z,1.33
2022-12-27T05:55:08.785Z,4.97
2022-12-27T05:57:35.314Z,2.57
2022-12-27T06:00:02.056Z,1.30
2022-12-27T06:02:28.713Z,1.37
2022-12-27T06:04:55.386Z,2.93
2022-12-27T06:07:21.982Z,11.40
2022-12-27T06:09:48.450Z,2.33
2022-12-27T06:12:15.032Z,3.50
2022-12-27T06:14:41.570Z,1.20
2022-12-27T06:17:08.102Z,2.17
2022-12-27T06:19:34.672Z,1.37
2022-12-27T06:22:01.210Z,0.93
2022-12-27T06:24:27.711Z,1.90
2022-12-27T06:26:54.248Z,1.20
2022-12-27T06:29:20.786Z,2.07
2022-12-27T06:31:47.457Z,0.93
2022-12-27T06:34:13.960Z,1.50
2022-12-27T06:36:40.527Z,0.87
2022-12-27T06:39:07.075Z,1.00
2022-12-27T06:41:34.388Z,3.10
2022-12-27T06:44:00.882Z,1.20
2022-12-27T06:46:27.408Z,1.10
2022-12-27T06:48:54.032Z,1.67
2022-12-27T06:51:20.734Z,1.67
2022-12-27T06:53:47.603Z,1.40
2022-12-27T06:56:16.779Z,1.60
2022-12-27T06:58:43.311Z,1.30
2022-12-27T07:01:10.294Z,2.33
2022-12-27T07:03:36.893Z,1.70
2022-12-27T07:06:06.876Z,2.03
2022-12-27T07:08:33.464Z,1.93
2022-12-27T07:11:01.053Z,2.20
2022-12-27T07:13:27.582Z,1.97
2022-12-27T07:15:54.129Z,2.50
2022-12-27T07:18:20.622Z,2.27
2022-12-27T07:20:47.132Z,1.93
2022-12-27T07:23:19.218Z,1.67
2022-12-27T07:25:46.175Z,1.60
2022-12-27T07:28:12.651Z,1.30
2022-12-27T07:30:39.852Z,1.70
2022-12-27T07:33:06.363Z,1.30
2022-12-27T07:35:32.846Z,1.80
2022-12-27T07:38:00.022Z,2.27
2022-12-27T07:40:26.539Z,1.90
2022-12-27T07:42:53.085Z,2.77
2022-12-27T07:45:19.606Z,2.40
2022-12-27T07:47:46.419Z,2.70
2022-12-27T07:50:12.924Z,2.23
2022-12-27T07:52:39.488Z,1.37
2022-12-27T07:55:06.217Z,1.73
2022-12-27T07:57:32.690Z,2.13
2022-12-27T07:59:59.194Z,1.47
2022-12-27T08:02:25.783Z,1.70
2022-12-27T08:04:52.370Z,2.03
2022-12-27T08:07:19.024Z,1.50
2022-12-27T08:09:46.162Z,1.43
2022-12-27T08:12:13.711Z,1.10
2022-12-27T08:14:40.489Z,1.20
2022-12-27T08:17:08.795Z,1.43
2022-12-27T08:19:35.422Z,1.27
2022-12-27T08:22:02.084Z,2.00
2022-12-27T08:24:28.565Z,1.30
2022-12-27T08:26:55.127Z,1.70
2022-12-27T08:29:21.617Z,1.90
2022-12-27T08:31:48.173Z,1.97
2022-12-27T08:34:14.723Z,1.80
2022-12-27T08:36:56.908Z,2.37
2022-12-27T08:39:24.453Z,2.77
2022-12-27T08:41:52.255Z,3.03
2022-12-27T08:44:18.774Z,2.60
2022-12-27T08:46:45.498Z,3.33
2022-12-27T08:49:11.974Z,2.47
2022-12-27T08:51:41.199Z,2.90
2022-12-27T08:54:08.170Z,3.30
2022-12-27T08:56:34.717Z,2.67
2022-12-27T08:59:01.264Z,2.43
2022-12-27T09:01:27.876Z,2.40
2022-12-27T09:03:54.467Z,2.30
2022-12-27T09:06:21.812Z,2.63
2022-12-27T09:08:48.570Z,1.33
2022-12-27T09:11:15.811Z,1.97
2022-12-27T09:13:42.569Z,1.80
2022-12-27T09:16:13.104Z,1.90
2022-12-27T09:18:40.136Z,2.10
2022-12-27T09:21:07.223Z,1.73
2022-12-27T09:23:34.010Z,1.60
2022-12-27T09:26:04.297Z,1.60
2022-12-27T09:28:30.789Z,1.10
2022-12-27T09:30:57.528Z,1.40
2022-12-27T09:33:24.165Z,1.63
2022-12-27T09:35:50.624Z,1.53
2022-12-27T09:38:17.104Z,1.83
2022-12-27T09:40:53.498Z,1.27
2022-12-27T09:43:25.562Z,1.27
2022-12-27T09:45:54.263Z,1.40
2022-12-27T09:48:34.202Z,1.20
2022-12-27T09:51:02.437Z,1.07
2022-12-27T09:53:40.054Z,1.27
2022-12-27T09:56:06.632Z,1.10
2022-12-27T09:58:38.338Z,1.50
2022-12-27T10:01:12.528Z,0.90
2022-12-27T10:03:39.267Z,1.50
2022-12-27T10:06:24.715Z,1.17
2022-12-27T10:08:53.901Z,1.00
2022-12-27T10:11:36.679Z,1.80
2022-12-27T10:14:11.452Z,1.67
2022-12-27T10:16:42.956Z,1.70
2022-12-27T10:19:09.423Z,1.20
2022-12-27T10:21:37.470Z,1.20
2022-12-27T10:24:17.164Z,1.20
2022-12-27T10:26:43.649Z,1.87
2022-12-27T10:29:16.253Z,1.43
2022-12-27T10:31:43.089Z,1.80
2022-12-27T10:34:10.933Z,1.97
2022-12-27T10:36:37.576Z,2.30
2022-12-27T10:39:04.235Z,1.57
2022-12-27T10:41:38.739Z,2.00
2022-12-27T10:44:11.556Z,1.60
2022-12-27T10:46:38.429Z,1.43
2022-12-27T10:49:21.547Z,1.57
2022-12-27T10:51:49.336Z,1.20
2022-12-27T10:54:15.835Z,1.33
2022-12-27T10:56:44.227Z,1.30
2022-12-27T10:59:12.002Z,1.27
2022-12-27T11:01:38.649Z,1.20
2022-12-27T11:04:11.920Z,1.00
2022-12-27T11:06:43.328Z,1.20
2022-12-27T11:09:19.002Z,0.90
2022-12-27T11:11:45.502Z,0.80
2022-12-27T11:14:13.229Z,1.27
2022-12-27T11:16:39.813Z,1.47
2022-12-27T11:19:06.531Z,1.00
2022-12-27T11:21:33.023Z,1.40
2022-12-27T11:24:00.233Z,1.30
2022-12-27T11:26:54.174Z,0.93
2022-12-27T11:29:21.662Z,0.80
2022-12-27T11:31:48.786Z,1.00
2022-12-27T11:34:16.269Z,0.80
2022-12-27T11:36:43.603Z,0.80
2022-12-27T11:39:28.784Z,1.13
2022-12-27T11:41:55.309Z,0.80
2022-12-27T11:44:28.583Z,0.83
2022-12-27T11:47:01.360Z,0.73
2022-12-27T11:49:29.159Z,0.90
2022-12-27T11:52:00.266Z,1.10
2022-12-27T11:54:32.839Z,1.27
2022-12-27T11:57:00.625Z,1.00
2022-12-27T11:59:50.553Z,0.90
2022-12-27T12:02:26.314Z,0.90
2022-12-27T12:04:56.002Z,1.17
2022-12-27T12:07:22.523Z,1.00
2022-12-27T12:10:03.978Z,0.83
2022-12-27T12:12:42.300Z,1.00
2022-12-27T12:15:27.189Z,1.07
2022-12-27T12:17:56.775Z,0.73
2022-12-27T12:20:34.555Z,0.80
2022-12-27T12:23:11.063Z,1.40
2022-12-27T12:26:04.030Z,0.90
2022-12-27T12:28:58.650Z,1.40
2022-12-27T12:31:36.174Z,2.37
2022-12-27T12:34:02.703Z,1.20
2022-12-27T12:36:32.259Z,1.07
2022-12-27T12:38:59.519Z,0.80
2022-12-27T12:41:31.396Z,0.80
2022-12-27T12:44:04.399Z,0.80
2022-12-27T12:46:37.995Z,0.80
2022-12-27T12:49:10.613Z,0.87
2022-12-27T12:51:42.065Z,1.00
2022-12-27T12:54:20.882Z,1.20
2022-12-27T12:56:56.479Z,1.40
2022-12-27T12:59:22.978Z,1.57
2022-12-27T13:01:55.618Z,1.10
2022-12-27T13:04:31.337Z,1.00
2022-12-27T13:07:17.015Z,0.93
2022-12-27T13:09:49.729Z,0.90
2022-12-27T13:12:16.211Z,0.90
2022-12-27T13:14:55.275Z,0.90
2022-12-27T13:17:24.775Z,0.70
2022-12-27T13:19:57.478Z,0.87
2022-12-27T13:22:42.886Z,0.93
2022-12-27T13:25:18.449Z,0.87
2022-12-27T13:27:48.157Z,0.87
2022-12-27T13:30:19.409Z,0.70
2022-12-27T13:33:15.299Z,0.70
2022-12-27T13:35:41.905Z,0.87
2022-12-27T13:38:11.466Z,0.90
2022-12-27T13:40:56.769Z,1.33
2022-12-27T13:43:38.639Z,0.77
2022-12-27T13:46:11.364Z,0.97
2022-12-27T13:48:40.922Z,0.80
2022-12-27T13:51:11.354Z,0.70
2022-12-27T13:53:40.957Z,0.97
2022-12-27T13:56:51.424Z,0.90
2022-12-27T13:59:06.190Z,1.10
2022-12-27T14:01:45.905Z,1.00
2022-12-27T14:04:24.671Z,1.47
2022-12-27T14:07:03.432Z,1.30
2022-12-27T14:09:33.337Z,1.10
2022-12-27T14:11:59.826Z,1.20
2022-12-27T14:14:26.361Z,1.63
2022-12-27T14:17:12.391Z,1.70
2022-12-27T14:19:44.023Z,1.93
2022-12-27T14:22:25.859Z,1.63
2022-12-27T14:25:04.396Z,2.23
2022-12-27T14:27:31.082Z,2.43
2022-12-27T14:30:13.185Z,2.03
2022-12-27T14:33:04.635Z,1.70
2022-12-27T14:35:49.918Z,2.40
2022-12-27T14:38:16.511Z,1.97
2022-12-27T14:41:01.525Z,3.07
2022-12-27T14:43:39.983Z,2.33
2022-12-27T14:46:23.714Z,2.43
2022-12-27T14:49:16.525Z,2.13
2022-12-27T14:52:05.904Z,1.97
2022-12-27T14:54:51.343Z,1.90
2022-12-27T14:57:36.625Z,2.47
2022-12-27T15:00:04.331Z,3.13
2022-12-27T15:02:40.230Z,3.33
2022-12-27T15:05:07.449Z,3.27
2022-12-27T15:07:42.931Z,3.30
2022-12-27T15:10:18.110Z,2.63
2022-12-27T15:13:03.392Z,2.80
2022-12-27T15:15:42.907Z,2.10
2022-12-27T15:18:19.650Z,2.37
2022-12-27T15:20:52.380Z,2.20
2022-12-27T15:23:28.146Z,2.90
2022-12-27T15:25:57.491Z,2.93
2022-12-27T15:28:30.086Z,3.07
2022-12-27T15:30:59.891Z,4.10
2022-12-27T15:33:29.502Z,3.47
2022-12-27T15:35:57.033Z,3.60
2022-12-27T15:38:42.747Z,4.03
2022-12-27T15:41:09.278Z,4.00
2022-12-27T15:43:48.095Z,3.27
2022-12-27T15:46:36.308Z,3.50
2022-12-27T15:49:12.177Z,3.23
2022-12-27T15:51:44.909Z,3.63
2022-12-27T15:54:24.364Z,3.87
2022-12-27T15:56:50.915Z,3.70
2022-12-27T15:59:38.009Z,3.77
2022-12-27T16:02:14.585Z,4.10
2022-12-27T16:04:46.607Z,3.53
2022-12-27T16:07:31.750Z,4.40
2022-12-27T16:09:58.398Z,3.47
2022-12-27T16:12:31.915Z,3.83
2022-12-27T16:15:17.407Z,3.73
2022-12-27T16:17:53.340Z,3.10
2022-12-27T16:20:20.378Z,2.87
2022-12-27T16:22:52.029Z,3.23
2022-12-27T16:25:25.482Z,3.90
2022-12-27T16:28:01.304Z,4.37
2022-12-27T16:30:44.481Z,4.20
2022-12-27T16:33:33.602Z,4.90
2022-12-27T16:36:12.540Z,5.10
2022-12-27T16:38:45.094Z,4.63
2022-12-27T16:41:30.549Z,5.03
2022-12-27T16:44:00.106Z,5.27
2022-12-27T16:46:44.640Z,5.60
2022-12-27T16:49:11.141Z,5.93
2022-12-27T16:51:53.313Z,5.63
2022-12-27T16:54:26.608Z,6.20
2022-12-27T16:56:53.812Z,6.73
2022-12-27T16:59:39.464Z,5.90
2022-12-27T17:02:08.940Z,5.03
2022-12-27T17:04:54.991Z,5.53
2022-12-27T17:07:41.470Z,5.47
2022-12-27T17:10:28.277Z,4.83
2022-12-27T17:12:59.352Z,5.43
2022-12-27T17:15:26.243Z,4.93
2022-12-27T17:17:53.752Z,4.70
2022-12-27T17:20:21.368Z,4.90
2022-12-27T17:22:48.416Z,5.37
2022-12-27T17:25:15.290Z,4.77
2022-12-27T17:27:41.809Z,5.33
2022-12-27T17:30:11.151Z,5.03
2022-12-27T17:32:40.694Z,4.90
2022-12-27T17:35:27.116Z,5.13
2022-12-27T17:38:04.615Z,4.33
2022-12-27T17:40:31.215Z,4.33
2022-12-27T17:43:21.082Z,4.63
2022-12-27T17:45:55.821Z,4.50
2022-12-27T17:48:23.571Z,4.40
2022-12-27T17:50:54.615Z,5.00
2022-12-27T17:53:40.294Z,3.87
2022-12-27T17:56:28.948Z,4.03
2022-12-27T17:59:01.988Z,4.03
2022-12-27T18:01:29.499Z,4.60
2022-12-27T18:03:56.064Z,4.33
2022-12-27T18:06:22.607Z,3.93
2022-12-27T18:08:49.186Z,3.93
2022-12-27T18:11:15.771Z,4.50
2022-12-27T18:14:00.849Z,4.67
2022-12-27T18:16:37.882Z,4.23
2022-12-27T18:19:04.631Z,3.67
2022-12-27T18:21:31.431Z,3.93
2022-12-27T18:23:57.923Z,5.00
2022-12-27T18:26:31.849Z,4.60
2022-12-27T18:28:58.465Z,4.50
2022-12-27T18:31:29.054Z,4.73
2022-12-27T18:33:57.296Z,4.50
2022-12-27T18:36:23.774Z,5.33
2022-12-27T18:38:55.460Z,5.37
2022-12-27T18:41:22.031Z,5.60
2022-12-27T18:43:49.175Z,6.77
2022-12-27T18:46:16.862Z,7.23
2022-12-27T18:48:43.427Z,7.00
2022-12-27T18:51:09.918Z,6.13
2022-12-27T18:53:37.955Z,5.60
2022-12-27T18:56:29.360Z,6.27
2022-12-27T18:59:03.327Z,5.10
2022-12-27T19:01:34.883Z,5.30
2022-12-27T19:04:13.945Z,6.03
2022-12-27T19:06:49.855Z,6.53
2022-12-27T19:09:16.833Z,7.10
2022-12-27T19:11:49.565Z,6.37
2022-12-27T19:14:16.067Z,5.80
2022-12-27T19:16:43.693Z,6.33
2022-12-27T19:19:14.949Z,5.90
2022-12-27T19:21:41.784Z,5.97
2022-12-27T19:24:22.055Z,6.50
2022-12-27T19:26:48.568Z,6.63
2022-12-27T19:29:16.321Z,7.20
2022-12-27T19:31:43.825Z,7.40
2022-12-27T19:34:13.295Z,7.67
2022-12-27T19:36:40.804Z,8.37
2022-12-27T19:39:09.537Z,7.90
2022-12-27T19:41:38.291Z,7.90
2022-12-27T19:44:05.728Z,8.07
2022-12-27T19:46:32.283Z,8.50
2022-12-27T19:51:46.320Z,8.03
2022-12-27T19:54:13.875Z,8.73
2022-12-27T19:56:40.443Z,9.07
2022-12-27T19:59:10.330Z,8.83
2022-12-27T20:01:36.961Z,9.50
2022-12-27T20:04:03.567Z,8.77
2022-12-27T20:06:30.032Z,9.50
2022-12-27T20:08:57.009Z,8.80
2022-12-27T20:11:23.717Z,9.27
2022-12-27T20:13:50.292Z,8.67
2022-12-27T20:16:17.519Z,8.73
2022-12-27T20:18:44.048Z,8.87
2022-12-27T20:21:15.334Z,9.63
2022-12-27T20:23:41.991Z,10.83
2022-12-27T20:26:08.525Z,11.47
2022-12-27T20:28:35.162Z,12.57
2022-12-27T20:31:08.496Z,12.93
2022-12-27T20:33:35.602Z,13.43
2022-12-27T20:36:02.226Z,13.43
2022-12-27T20:38:28.738Z,13.33
2022-12-27T20:40:55.250Z,14.67
2022-12-27T20:43:21.844Z,14.23
2022-12-27T20:45:48.500Z,15.83
2022-12-27T20:48:15.285Z,16.37
2022-12-27T20:50:41.792Z,16.53
2022-12-27T20:53:08.496Z,17.90
2022-12-27T20:55:35.127Z,19.93
2022-12-27T20:58:01.637Z,17.97
2022-12-27T21:00:28.166Z,17.93
2022-12-27T21:02:55.101Z,17.97
2022-12-27T21:05:21.916Z,19.27
2022-12-27T21:07:48.473Z,19.43
2022-12-27T21:10:15.012Z,19.80
2022-12-27T21:12:41.585Z,18.30
2022-12-27T21:15:08.662Z,16.60
2022-12-27T21:17:35.526Z,16.70
2022-12-27T21:20:02.106Z,16.00
2022-12-27T21:22:28.663Z,18.53
2022-12-27T21:24:55.170Z,17.23
2022-12-27T21:27:21.685Z,17.40
2022-12-27T21:29:48.171Z,14.03
2022-12-27T21:32:14.690Z,14.00
2022-12-27T21:34:41.352Z,12.43
2022-12-27T21:37:13.072Z,11.37
2022-12-27T21:39:40.281Z,11.03
2022-12-27T21:42:06.895Z,10.23
2022-12-27T21:44:35.454Z,10.30
2022-12-27T21:47:01.967Z,9.47
2022-12-27T21:49:29.651Z,9.93
2022-12-27T21:51:56.175Z,9.40
2022-12-27T21:54:22.711Z,9.80
2022-12-27T21:56:49.604Z,11.27
2022-12-27T21:59:16.271Z,9.97
2022-12-27T22:01:49.980Z,9.43
2022-12-27T22:04:18.801Z,9.43
2022-12-27T22:06:47.588Z,8.53
2022-12-27T22:09:14.624Z,8.97
2022-12-27T22:11:41.173Z,8.60
2022-12-27T22:14:07.818Z,8.80
2022-12-27T22:16:35.978Z,9.33
2022-12-27T22:19:02.652Z,8.13
2022-12-27T22:21:29.871Z,8.67
2022-12-27T22:23:57.018Z,9.40
2022-12-27T22:26:27.461Z,9.27
2022-12-27T22:28:54.013Z,8.40
2022-12-27T22:31:21.663Z,9.57
2022-12-27T22:33:48.496Z,9.83
2022-12-27T22:36:15.943Z,10.87
2022-12-27T22:38:42.428Z,10.73
2022-12-27T22:41:22.337Z,12.73
2022-12-27T22:43:49.671Z,11.93
2022-12-27T22:46:16.260Z,10.17
2022-12-27T22:48:42.798Z,9.47
2022-12-27T22:51:19.387Z,9.67
2022-12-27T22:53:45.869Z,9.60
2022-12-27T22:56:13.351Z,9.10
2022-12-27T22:58:39.851Z,10.77
2022-12-27T23:01:13.384Z,10.87
2022-12-27T23:03:40.194Z,8.73
2022-12-27T23:06:06.839Z,9.97
2022-12-27T23:08:33.307Z,9.20
2022-12-27T23:11:03.804Z,10.67
2022-12-27T23:13:30.345Z,10.60
2022-12-27T23:15:57.701Z,11.57
2022-12-27T23:18:24.295Z,11.90
2022-12-27T23:21:20.491Z,12.77
2022-12-27T23:23:37.376Z,12.23
2022-12-27T23:26:04.757Z,13.57
2022-12-27T23:28:31.254Z,11.70
2022-12-27T23:30:57.795Z,12.03
2022-12-27T23:33:24.357Z,11.53
2022-12-27T23:35:50.833Z,12.57
2022-12-27T23:38:17.341Z,11.33
2022-12-27T23:40:43.935Z,11.03
2022-12-27T23:43:42.041Z,11.30
2022-12-27T23:46:03.349Z,11.57
2022-12-27T23:48:29.862Z,10.43
2022-12-27T23:50:56.426Z,11.93
2022-12-27T23:53:22.937Z,12.93
2022-12-27T23:56:04.749Z,13.93
2022-12-27T23:58:31.264Z,10.63
